sensor_id;sensor_type;location;lat;lon;timestamp;P1;durP1;ratioP1;P2;durP2;ratioP2
30299;SDS011;17110;52.602;12.998;2022-12-31T17:46:57;6.70;;;3.70;;
30299;SDS011;17110;52.602;12.998;2022-12-31T17:49:29;6.63;;;4.70;;
30299;SDS011;17110;52.602;12.998;2022-12-31T17:51:56;5.65;;;3.70;;
30299;SDS011;17110;52.602;12.998;2022-12-31T17:54:22;6.00;;;3.63;;
30299;SDS011;17110;52.602;12.998;2022-12-31T17:56:48;5.53;;;3.17;;
30299;SDS011;17110;52.602;12.998;2022-12-31T17:59:18;5.05;;;3.42;;
30299;SDS011;17110;52.602;12.998;2022-12-31T18:01:46;3.85;;;3.17;;
30299;SDS011;17110;52.602;12.998;2022-12-31T18:04:13;4.18;;;2.50;;
30299;SDS011;17110;52.602;12.998;2022-12-31T18:06:40;3.67;;;2.08;;
30299;SDS011;17110;52.602;12.998;2022-12-31T18:09:06;4.68;;;2.67;;
30299;SDS011;17110;52.602;12.998;2022-12-31T18:11:31;4.70;;;2.38;;
30299;SDS011;17110;52.602;12.998;2022-12-31T18:13:59;4.63;;;2.50;;
30299;SDS011;17110;52.602;12.998;2022-12-31T18:16:24;5.63;;;2.33;;
30299;SDS011;17110;52.602;12.998;2022-12-31T18:18:50;5.68;;;3.00;;
30299;SDS011;17110;52.602;12.998;2022-12-31T18:21:21;5.03;;;3.20;;
30299;SDS011;17110;52.602;12.998;2022-12-31T18:23:56;5.38;;;3.20;;
30299;SDS011;17110;52.602;12.998;2022-12-31T18:26:23;8.05;;;4.72;;
30299;SDS011;17110;52.602;12.998;2022-12-31T18:28:50;8.13;;;5.28;;
30299;SDS011;17110;52.602;12.998;2022-12-31T18:31:20;6.70;;;4.32;;
30299;SDS011;17110;52.602;12.998;2022-12-31T18:33:48;8.50;;;5.57;;
30299;SDS011;17110;52.602;12.998;2022-12-31T18:36:15;5.57;;;3.60;;
30299;SDS011;17110;52.602;12.998;2022-12-31T18:38:42;6.70;;;4.47;;
30299;SDS011;17110;52.602;12.998;2022-12-31T18:41:19;8.03;;;5.70;;
30299;SDS011;17110;52.602;12.998;2022-12-31T18:43:46;6.17;;;4.00;;
30299;SDS011;17110;52.602;12.998;2022-12-31T18:46:13;6.13;;;3.70;;
30299;SDS011;17110;52.602;12.998;2022-12-31T18:48:41;6.85;;;4.93;;
30299;SDS011;17110;52.602;12.998;2022-12-31T18:51:12;8.27;;;4.45;;
30299;SDS011;17110;52.602;12.998;2022-12-31T18:53:45;5.53;;;3.90;;
30299;SDS011;17110;52.602;12.998;2022-12-31T18:56:12;5.07;;;2.87;;
30299;SDS011;17110;52.602;12.998;2022-12-31T18:58:45;4.90;;;3.60;;
30299;SDS011;17110;52.602;12.998;2022-12-31T19:03:50;8.65;;;5.85;;
30299;SDS011;17110;52.602;12.998;2022-12-31T19:06:16;9.63;;;8.13;;
30299;SDS011;17110;52.602;12.998;2022-12-31T19:08:42;23.93;;;16.17;;
30299;SDS011;17110;52.602;12.998;2022-12-31T19:11:10;23.67;;;16.67;;
30299;SDS011;17110;52.602;12.998;2022-12-31T19:13:38;14.00;;;9.25;;
30299;SDS011;17110;52.602;12.998;2022-12-31T19:16:04;10.55;;;6.40;;
30299;SDS011;17110;52.602;12.998;2022-12-31T19:18:31;7.78;;;5.95;;
30299;SDS011;17110;52.602;12.998;2022-12-31T19:20:57;7.93;;;4.80;;
30299;SDS011;17110;52.602;12.998;2022-12-31T19:23:23;6.72;;;4.78;;
30299;SDS011;17110;52.602;12.998;2022-12-31T19:25:49;6.70;;;4.80;;
30299;SDS011;17110;52.602;12.998;2022-12-31T19:28:16;9.35;;;5.95;;
30299;SDS011;17110;52.602;12.998;2022-12-31T19:30:44;7.40;;;4.80;;
30299;SDS011;17110;52.602;12.998;2022-12-31T19:33:11;7.72;;;4.95;;
30299;SDS011;17110;52.602;12.998;2022-12-31T19:35:37;7.73;;;4.87;;
30299;SDS011;17110;52.602;12.998;2022-12-31T19:38:04;6.03;;;4.53;;
30299;SDS011;17110;52.602;12.998;2022-12-31T19:40:35;8.93;;;6.20;;
30299;SDS011;17110;52.602;12.998;2022-12-31T19:43:01;6.83;;;4.50;;
30299;SDS011;17110;52.602;12.998;2022-12-31T19:45:27;8.07;;;5.57;;
30299;SDS011;17110;52.602;12.998;2022-12-31T19:47:56;16.17;;;11.77;;
30299;SDS011;17110;52.602;12.998;2022-12-31T19:50:26;8.20;;;6.63;;
30299;SDS011;17110;52.602;12.998;2022-12-31T19:52:53;10.02;;;6.20;;
30299;SDS011;17110;52.602;12.998;2022-12-31T19:55:22;9.32;;;6.97;;
30299;SDS011;17110;52.602;12.998;2022-12-31T19:57:50;6.55;;;4.63;;
30299;SDS011;17110;52.602;12.998;2022-12-31T20:00:17;7.18;;;4.95;;
30299;SDS011;17110;52.602;12.998;2022-12-31T20:02:44;5.40;;;4.15;;
30299;SDS011;17110;52.602;12.998;2022-12-31T20:05:13;6.80;;;4.88;;
30299;SDS011;17110;52.602;12.998;2022-12-31T20:07:40;13.35;;;9.52;;
30299;SDS011;17110;52.602;12.998;2022-12-31T20:10:06;7.55;;;6.05;;
30299;SDS011;17110;52.602;12.998;2022-12-31T20:12:32;7.70;;;6.22;;
30299;SDS011;17110;52.602;12.998;2022-12-31T20:14:58;7.38;;;5.88;;
30299;SDS011;17110;52.602;12.998;2022-12-31T20:17:24;7.60;;;5.40;;
30299;SDS011;17110;52.602;12.998;2022-12-31T20:19:50;6.57;;;4.47;;
30299;SDS011;17110;52.602;12.998;2022-12-31T20:22:17;4.72;;;3.38;;
30299;SDS011;17110;52.602;12.998;2022-12-31T20:24:42;9.57;;;6.95;;
30299;SDS011;17110;52.602;12.998;2022-12-31T20:27:08;6.25;;;4.20;;
30299;SDS011;17110;52.602;12.998;2022-12-31T20:29:34;6.40;;;4.10;;
30299;SDS011;17110;52.602;12.998;2022-12-31T20:32:00;6.13;;;4.55;;
30299;SDS011;17110;52.602;12.998;2022-12-31T20:34:26;6.38;;;4.78;;
30299;SDS011;17110;52.602;12.998;2022-12-31T20:36:54;6.10;;;3.97;;
30299;SDS011;17110;52.602;12.998;2022-12-31T20:39:20;5.85;;;3.70;;
30299;SDS011;17110;52.602;12.998;2022-12-31T20:41:49;4.90;;;3.07;;
30299;SDS011;17110;52.602;12.998;2022-12-31T20:44:15;4.13;;;3.30;;
30299;SDS011;17110;52.602;12.998;2022-12-31T20:46:41;6.27;;;3.10;;
30299;SDS011;17110;52.602;12.998;2022-12-31T20:49:08;5.97;;;3.22;;
30299;SDS011;17110;52.602;12.998;2022-12-31T20:51:35;30.67;;;24.35;;
30299;SDS011;17110;52.602;12.998;2022-12-31T20:54:02;8.43;;;5.47;;
30299;SDS011;17110;52.602;12.998;2022-12-31T20:56:32;7.03;;;4.93;;
30299;SDS011;17110;52.602;12.998;2022-12-31T20:59:00;6.90;;;3.60;;
30299;SDS011;17110;52.602;12.998;2022-12-31T21:01:30;8.27;;;5.40;;
30299;SDS011;17110;52.602;12.998;2022-12-31T21:03:55;6.38;;;3.97;;
30299;SDS011;17110;52.602;12.998;2022-12-31T21:06:22;7.07;;;3.95;;
30299;SDS011;17110;52.602;12.998;2022-12-31T21:08:48;6.77;;;4.00;;
30299;SDS011;17110;52.602;12.998;2022-12-31T21:11:14;6.60;;;3.30;;
30299;SDS011;17110;52.602;12.998;2022-12-31T21:13:59;5.25;;;3.90;;
30299;SDS011;17110;52.602;12.998;2022-12-31T21:16:25;4.55;;;3.47;;
30299;SDS011;17110;52.602;12.998;2022-12-31T21:18:51;6.10;;;3.58;;
30299;SDS011;17110;52.602;12.998;2022-12-31T21:21:18;5.70;;;3.20;;
30299;SDS011;17110;52.602;12.998;2022-12-31T21:23:44;6.93;;;3.20;;
30299;SDS011;17110;52.602;12.998;2022-12-31T21:26:09;4.63;;;3.20;;
30299;SDS011;17110;52.602;12.998;2022-12-31T21:28:35;6.15;;;3.30;;
30299;SDS011;17110;52.602;12.998;2022-12-31T21:31:02;6.13;;;4.00;;
30299;SDS011;17110;52.602;12.998;2022-12-31T21:33:29;6.00;;;3.60;;
30299;SDS011;17110;52.602;12.998;2022-12-31T21:35:55;7.40;;;4.30;;
30299;SDS011;17110;52.602;12.998;2022-12-31T21:38:21;6.53;;;3.33;;
30299;SDS011;17110;52.602;12.998;2022-12-31T21:40:47;6.22;;;3.30;;
30299;SDS011;17110;52.602;12.998;2022-12-31T21:43:13;7.18;;;3.70;;
30299;SDS011;17110;52.602;12.998;2022-12-31T21:45:39;6.40;;;4.00;;
30299;SDS011;17110;52.602;12.998;2022-12-31T21:48:06;6.78;;;3.60;;
30299;SDS011;17110;52.602;12.998;2022-12-31T21:50:54;6.03;;;4.30;;
30299;SDS011;17110;52.602;12.998;2022-12-31T21:53:28;5.68;;;3.15;;
30299;SDS011;17110;52.602;12.998;2022-12-31T21:55:54;5.57;;;3.10;;
30299;SDS011;17110;52.602;12.998;2022-12-31T21:58:32;5.10;;;3.83;;
30299;SDS011;17110;52.602;12.998;2022-12-31T22:00:58;6.40;;;2.85;;
30299;SDS011;17110;52.602;12.998;2022-12-31T22:03:43;5.53;;;3.65;;
30299;SDS011;17110;52.602;12.998;2022-12-31T22:06:19;5.47;;;2.63;;
30299;SDS011;17110;52.602;12.998;2022-12-31T22:08:47;5.80;;;3.45;;
30299;SDS011;17110;52.602;12.998;2022-12-31T22:11:15;6.57;;;3.58;;
30299;SDS011;17110;52.602;12.998;2022-12-31T22:13:41;4.30;;;3.00;;
30299;SDS011;17110;52.602;12.998;2022-12-31T22:16:11;6.40;;;3.95;;
30299;SDS011;17110;52.602;12.998;2022-12-31T22:18:38;37.35;;;28.23;;
30299;SDS011;17110;52.602;12.998;2022-12-31T22:21:17;5.20;;;3.42;;
30299;SDS011;17110;52.602;12.998;2022-12-31T22:23:44;4.90;;;2.63;;
30299;SDS011;17110;52.602;12.998;2022-12-31T22:26:13;3.67;;;2.20;;
30299;SDS011;17110;52.602;12.998;2022-12-31T22:28:41;4.30;;;2.50;;
30299;SDS011;17110;52.602;12.998;2022-12-31T22:31:08;6.75;;;3.22;;
30299;SDS011;17110;52.602;12.998;2022-12-31T22:33:38;5.30;;;2.50;;
30299;SDS011;17110;52.602;12.998;2022-12-31T22:36:04;3.80;;;2.45;;
30299;SDS011;17110;52.602;12.998;2022-12-31T22:38:34;7.55;;;3.70;;
30299;SDS011;17110;52.602;12.998;2022-12-31T22:41:00;5.05;;;2.72;;
30299;SDS011;17110;52.602;12.998;2022-12-31T22:43:26;7.05;;;3.00;;
30299;SDS011;17110;52.602;12.998;2022-12-31T22:45:52;9.57;;;3.00;;
30299;SDS011;17110;52.602;12.998;2022-12-31T22:48:18;4.10;;;2.60;;
30299;SDS011;17110;52.602;12.998;2022-12-31T22:50:43;4.18;;;2.00;;
30299;SDS011;17110;52.602;12.998;2022-12-31T22:53:17;5.97;;;3.07;;
30299;SDS011;17110;52.602;12.998;2022-12-31T22:55:43;7.53;;;4.68;;
30299;SDS011;17110;52.602;12.998;2022-12-31T22:58:09;5.33;;;2.70;;
30299;SDS011;17110;52.602;12.998;2022-12-31T23:00:38;8.20;;;3.67;;
30299;SDS011;17110;52.602;12.998;2022-12-31T23:03:05;39.90;;;23.47;;
30299;SDS011;17110;52.602;12.998;2022-12-31T23:05:32;58.33;;;41.42;;
30299;SDS011;17110;52.602;12.998;2022-12-31T23:07:58;45.85;;;32.70;;
30299;SDS011;17110;52.602;12.998;2022-12-31T23:10:25;61.58;;;42.58;;
30299;SDS011;17110;52.602;12.998;2022-12-31T23:13:09;82.70;;;59.65;;
30299;SDS011;17110;52.602;12.998;2022-12-31T23:15:54;75.33;;;53.57;;
30299;SDS011;17110;52.602;12.998;2022-12-31T23:18:38;65.57;;;45.13;;
30299;SDS011;17110;52.602;12.998;2022-12-31T23:21:22;66.33;;;45.33;;
30299;SDS011;17110;52.602;12.998;2022-12-31T23:24:06;67.43;;;49.53;;
30299;SDS011;17110;52.602;12.998;2022-12-31T23:26:32;72.78;;;54.40;;
30299;SDS011;17110;52.602;12.998;2022-12-31T23:28:57;39.50;;;29.03;;
30299;SDS011;17110;52.602;12.998;2022-12-31T23:31:24;33.38;;;22.45;;
30299;SDS011;17110;52.602;12.998;2022-12-31T23:33:52;30.80;;;21.52;;
30299;SDS011;17110;52.602;12.998;2022-12-31T23:36:19;36.92;;;27.20;;
30299;SDS011;17110;52.602;12.998;2022-12-31T23:38:45;21.83;;;13.67;;
30299;SDS011;17110;52.602;12.998;2022-12-31T23:41:11;25.05;;;17.95;;
30299;SDS011;17110;52.602;12.998;2022-12-31T23:43:38;11.18;;;7.38;;
30299;SDS011;17110;52.602;12.998;2022-12-31T23:46:04;13.00;;;7.80;;
30299;SDS011;17110;52.602;12.998;2022-12-31T23:48:29;17.70;;;11.37;;
30299;SDS011;17110;52.602;12.998;2022-12-31T23:50:55;12.25;;;7.93;;
30299;SDS011;17110;52.602;12.998;2022-12-31T23:53:21;11.97;;;7.77;;
30299;SDS011;17110;52.602;12.998;2022-12-31T23:55:47;13.45;;;9.35;;
30299;SDS011;17110;52.602;12.998;2022-12-31T23:58:13;10.60;;;7.57;;
